sensor_id;sensor_type;location;lat;lon;timestamp;P1;durP1;ratioP1;P2;durP2;ratioP2
57635;SDS011;43465;50.728;4.160;2023-04-03T00:01:30;19.40;;;15.02;;
57635;SDS011;43465;50.728;4.160;2023-04-03T00:03:55;19.60;;;14.90;;
57635;SDS011;43465;50.728;4.160;2023-04-03T00:06:22;20.38;;;15.88;;
57635;SDS011;43465;50.728;4.160;2023-04-03T00:08:48;22.30;;;16.42;;
57635;SDS011;43465;50.728;4.160;2023-04-03T00:11:14;19.20;;;15.38;;
57635;SDS011;43465;50.728;4.160;2023-04-03T00:13:40;21.65;;;16.15;;
57635;SDS011;43465;50.728;4.160;2023-04-03T00:16:07;21.60;;;15.93;;
57635;SDS011;43465;50.728;4.160;2023-04-03T00:18:34;24.65;;;15.77;;
57635;SDS011;43465;50.728;4.160;2023-04-03T00:21:00;21.15;;;15.88;;
57635;SDS011;43465;50.728;4.160;2023-04-03T00:23:26;22.33;;;15.85;;
57635;SDS011;43465;50.728;4.160;2023-04-03T00:25:52;19.20;;;15.35;;
57635;SDS011;43465;50.728;4.160;2023-04-03T00:28:17;21.40;;;15.57;;
57635;SDS011;43465;50.728;4.160;2023-04-03T00:30:43;19.73;;;15.48;;
57635;SDS011;43465;50.728;4.160;2023-04-03T00:33:13;19.85;;;14.35;;
57635;SDS011;43465;50.728;4.160;2023-04-03T00:35:39;20.55;;;15.30;;
57635;SDS011;43465;50.728;4.160;2023-04-03T00:38:05;20.85;;;15.07;;
57635;SDS011;43465;50.728;4.160;2023-04-03T00:40:35;19.55;;;15.70;;
57635;SDS011;43465;50.728;4.160;2023-04-03T00:43:08;20.83;;;15.95;;
57635;SDS011;43465;50.728;4.160;2023-04-03T00:45:41;21.77;;;15.68;;
57635;SDS011;43465;50.728;4.160;2023-04-03T00:48:13;19.92;;;16.15;;
57635;SDS011;43465;50.728;4.160;2023-04-03T00:50:43;22.13;;;15.30;;
57635;SDS011;43465;50.728;4.160;2023-04-03T00:53:11;22.38;;;15.50;;
57635;SDS011;43465;50.728;4.160;2023-04-03T00:55:40;22.75;;;16.35;;
57635;SDS011;43465;50.728;4.160;2023-04-03T00:58:07;24.27;;;17.20;;
57635;SDS011;43465;50.728;4.160;2023-04-03T01:00:34;21.13;;;16.42;;
57635;SDS011;43465;50.728;4.160;2023-04-03T01:03:03;23.52;;;16.67;;
57635;SDS011;43465;50.728;4.160;2023-04-03T01:05:29;24.45;;;16.75;;
57635;SDS011;43465;50.728;4.160;2023-04-03T01:07:55;19.05;;;16.35;;
57635;SDS011;43465;50.728;4.160;2023-04-03T01:10:21;21.85;;;15.07;;
57635;SDS011;43465;50.728;4.160;2023-04-03T01:12:49;23.27;;;15.85;;
57635;SDS011;43465;50.728;4.160;2023-04-03T01:15:17;19.20;;;15.50;;
57635;SDS011;43465;50.728;4.160;2023-04-03T01:17:52;20.13;;;15.85;;
57635;SDS011;43465;50.728;4.160;2023-04-03T01:25:15;22.20;;;15.10;;
57635;SDS011;43465;50.728;4.160;2023-04-03T01:27:42;22.98;;;15.70;;
57635;SDS011;43465;50.728;4.160;2023-04-03T01:30:07;22.15;;;15.65;;
57635;SDS011;43465;50.728;4.160;2023-04-03T01:32:34;20.88;;;14.20;;
57635;SDS011;43465;50.728;4.160;2023-04-03T01:34:59;18.48;;;14.35;;
57635;SDS011;43465;50.728;4.160;2023-04-03T01:37:25;20.55;;;15.15;;
57635;SDS011;43465;50.728;4.160;2023-04-03T01:39:51;19.38;;;14.38;;
57635;SDS011;43465;50.728;4.160;2023-04-03T01:42:16;17.45;;;13.23;;
57635;SDS011;43465;50.728;4.160;2023-04-03T01:44:42;19.35;;;14.20;;
57635;SDS011;43465;50.728;4.160;2023-04-03T01:47:08;17.75;;;13.95;;
57635;SDS011;43465;50.728;4.160;2023-04-03T01:49:33;21.42;;;14.68;;
57635;SDS011;43465;50.728;4.160;2023-04-03T01:51:59;18.88;;;14.52;;
57635;SDS011;43465;50.728;4.160;2023-04-03T01:54:25;16.38;;;14.40;;
57635;SDS011;43465;50.728;4.160;2023-04-03T01:56:50;19.80;;;14.77;;
57635;SDS011;43465;50.728;4.160;2023-04-03T01:59:16;18.85;;;13.52;;
57635;SDS011;43465;50.728;4.160;2023-04-03T02:01:46;16.75;;;12.82;;
57635;SDS011;43465;50.728;4.160;2023-04-03T02:04:11;17.52;;;13.85;;
57635;SDS011;43465;50.728;4.160;2023-04-03T02:06:37;18.40;;;12.77;;
57635;SDS011;43465;50.728;4.160;2023-04-03T02:09:03;18.95;;;12.90;;
57635;SDS011;43465;50.728;4.160;2023-04-03T02:11:29;18.13;;;13.13;;
57635;SDS011;43465;50.728;4.160;2023-04-03T02:13:55;18.63;;;13.43;;
57635;SDS011;43465;50.728;4.160;2023-04-03T02:16:21;17.70;;;12.70;;
57635;SDS011;43465;50.728;4.160;2023-04-03T02:18:46;20.55;;;13.98;;
57635;SDS011;43465;50.728;4.160;2023-04-03T02:21:12;18.05;;;13.88;;
57635;SDS011;43465;50.728;4.160;2023-04-03T02:23:38;18.75;;;13.48;;
57635;SDS011;43465;50.728;4.160;2023-04-03T02:26:07;16.65;;;13.07;;
57635;SDS011;43465;50.728;4.160;2023-04-03T02:28:35;19.77;;;13.65;;
57635;SDS011;43465;50.728;4.160;2023-04-03T02:31:01;18.88;;;13.98;;
57635;SDS011;43465;50.728;4.160;2023-04-03T02:33:27;18.10;;;13.68;;
57635;SDS011;43465;50.728;4.160;2023-04-03T02:35:56;17.85;;;13.07;;
57635;SDS011;43465;50.728;4.160;2023-04-03T02:38:22;18.60;;;13.27;;
57635;SDS011;43465;50.728;4.160;2023-04-03T02:40:49;18.50;;;13.50;;
57635;SDS011;43465;50.728;4.160;2023-04-03T02:43:16;19.00;;;13.43;;
57635;SDS011;43465;50.728;4.160;2023-04-03T02:45:41;18.35;;;14.07;;
57635;SDS011;43465;50.728;4.160;2023-04-03T02:48:07;20.25;;;13.95;;
57635;SDS011;43465;50.728;4.160;2023-04-03T02:50:33;17.33;;;14.05;;
57635;SDS011;43465;50.728;4.160;2023-04-03T02:52:58;19.60;;;15.20;;
57635;SDS011;43465;50.728;4.160;2023-04-03T02:55:24;18.95;;;15.10;;
57635;SDS011;43465;50.728;4.160;2023-04-03T02:57:50;20.90;;;14.20;;
57635;SDS011;43465;50.728;4.160;2023-04-03T03:00:16;19.00;;;14.50;;
57635;SDS011;43465;50.728;4.160;2023-04-03T03:02:41;19.17;;;14.77;;
57635;SDS011;43465;50.728;4.160;2023-04-03T03:05:07;19.15;;;13.90;;
57635;SDS011;43465;50.728;4.160;2023-04-03T03:07:33;17.58;;;13.65;;
57635;SDS011;43465;50.728;4.160;2023-04-03T03:09:59;19.20;;;13.73;;
57635;SDS011;43465;50.728;4.160;2023-04-03T03:12:25;19.90;;;13.68;;
57635;SDS011;43465;50.728;4.160;2023-04-03T03:14:51;19.88;;;14.23;;
57635;SDS011;43465;50.728;4.160;2023-04-03T03:17:17;19.88;;;13.93;;
57635;SDS011;43465;50.728;4.160;2023-04-03T03:19:43;18.65;;;14.13;;
57635;SDS011;43465;50.728;4.160;2023-04-03T03:22:10;18.83;;;14.00;;
57635;SDS011;43465;50.728;4.160;2023-04-03T03:24:36;18.85;;;14.73;;
57635;SDS011;43465;50.728;4.160;2023-04-03T03:27:01;20.83;;;14.30;;
57635;SDS011;43465;50.728;4.160;2023-04-03T03:29:27;22.42;;;14.73;;
57635;SDS011;43465;50.728;4.160;2023-04-03T03:31:53;20.80;;;14.95;;
57635;SDS011;43465;50.728;4.160;2023-04-03T03:34:18;19.23;;;14.55;;
57635;SDS011;43465;50.728;4.160;2023-04-03T03:36:44;23.92;;;14.52;;
57635;SDS011;43465;50.728;4.160;2023-04-03T03:39:10;19.33;;;14.52;;
57635;SDS011;43465;50.728;4.160;2023-04-03T03:41:37;18.08;;;13.68;;
57635;SDS011;43465;50.728;4.160;2023-04-03T03:44:03;20.05;;;13.95;;
57635;SDS011;43465;50.728;4.160;2023-04-03T03:46:29;18.60;;;13.38;;
57635;SDS011;43465;50.728;4.160;2023-04-03T03:48:55;18.48;;;13.73;;
57635;SDS011;43465;50.728;4.160;2023-04-03T03:51:20;15.55;;;13.60;;
57635;SDS011;43465;50.728;4.160;2023-04-03T03:53:46;19.23;;;15.27;;
57635;SDS011;43465;50.728;4.160;2023-04-03T03:56:12;19.73;;;14.27;;
57635;SDS011;43465;50.728;4.160;2023-04-03T03:58:38;22.88;;;14.77;;
57635;SDS011;43465;50.728;4.160;2023-04-03T04:01:04;22.25;;;14.60;;
57635;SDS011;43465;50.728;4.160;2023-04-03T04:03:31;19.27;;;14.63;;
57635;SDS011;43465;50.728;4.160;2023-04-03T04:05:57;19.75;;;14.63;;
57635;SDS011;43465;50.728;4.160;2023-04-03T04:08:23;20.40;;;14.35;;
57635;SDS011;43465;50.728;4.160;2023-04-03T04:10:48;19.27;;;14.07;;
57635;SDS011;43465;50.728;4.160;2023-04-03T04:13:14;21.60;;;14.73;;
57635;SDS011;43465;50.728;4.160;2023-04-03T04:15:40;20.40;;;14.55;;
57635;SDS011;43465;50.728;4.160;2023-04-03T04:18:05;20.20;;;13.88;;
57635;SDS011;43465;50.728;4.160;2023-04-03T04:20:31;16.92;;;13.77;;
57635;SDS011;43465;50.728;4.160;2023-04-03T04:22:57;17.55;;;14.10;;
57635;SDS011;43465;50.728;4.160;2023-04-03T04:25:22;19.40;;;14.57;;
57635;SDS011;43465;50.728;4.160;2023-04-03T04:27:48;17.23;;;14.18;;
57635;SDS011;43465;50.728;4.160;2023-04-03T04:30:14;20.77;;;14.57;;
57635;SDS011;43465;50.728;4.160;2023-04-03T04:32:40;18.10;;;13.95;;
57635;SDS011;43465;50.728;4.160;2023-04-03T04:35:05;16.38;;;13.10;;
57635;SDS011;43465;50.728;4.160;2023-04-03T04:37:31;20.35;;;14.73;;
57635;SDS011;43465;50.728;4.160;2023-04-03T04:39:57;18.30;;;13.55;;
57635;SDS011;43465;50.728;4.160;2023-04-03T04:42:23;20.27;;;14.30;;
57635;SDS011;43465;50.728;4.160;2023-04-03T04:44:49;20.95;;;15.00;;
57635;SDS011;43465;50.728;4.160;2023-04-03T04:47:15;20.23;;;14.95;;
57635;SDS011;43465;50.728;4.160;2023-04-03T04:49:41;19.67;;;14.15;;
57635;SDS011;43465;50.728;4.160;2023-04-03T04:52:07;20.80;;;14.57;;
57635;SDS011;43465;50.728;4.160;2023-04-03T04:54:32;22.23;;;14.63;;
57635;SDS011;43465;50.728;4.160;2023-04-03T04:56:58;19.63;;;14.65;;
57635;SDS011;43465;50.728;4.160;2023-04-03T04:59:24;20.38;;;14.60;;
57635;SDS011;43465;50.728;4.160;2023-04-03T05:01:50;22.08;;;14.80;;
57635;SDS011;43465;50.728;4.160;2023-04-03T05:04:15;20.65;;;14.60;;
57635;SDS011;43465;50.728;4.160;2023-04-03T05:06:41;21.88;;;15.30;;
57635;SDS011;43465;50.728;4.160;2023-04-03T05:09:07;20.38;;;15.75;;
57635;SDS011;43465;50.728;4.160;2023-04-03T05:11:33;22.48;;;15.55;;
57635;SDS011;43465;50.728;4.160;2023-04-03T05:13:59;18.88;;;15.00;;
57635;SDS011;43465;50.728;4.160;2023-04-03T05:16:25;21.73;;;15.13;;
57635;SDS011;43465;50.728;4.160;2023-04-03T05:18:51;20.90;;;14.60;;
57635;SDS011;43465;50.728;4.160;2023-04-03T05:21:16;19.75;;;14.85;;
57635;SDS011;43465;50.728;4.160;2023-04-03T05:23:43;24.13;;;16.90;;
57635;SDS011;43465;50.728;4.160;2023-04-03T05:26:09;22.40;;;16.00;;
57635;SDS011;43465;50.728;4.160;2023-04-03T05:28:34;20.52;;;16.27;;
57635;SDS011;43465;50.728;4.160;2023-04-03T05:31:01;24.13;;;16.58;;
57635;SDS011;43465;50.728;4.160;2023-04-03T05:33:27;25.00;;;16.90;;
57635;SDS011;43465;50.728;4.160;2023-04-03T05:35:53;22.02;;;16.75;;
57635;SDS011;43465;50.728;4.160;2023-04-03T05:38:19;23.27;;;16.95;;
57635;SDS011;43465;50.728;4.160;2023-04-03T05:40:45;22.92;;;15.40;;
57635;SDS011;43465;50.728;4.160;2023-04-03T05:43:11;21.77;;;16.30;;
57635;SDS011;43465;50.728;4.160;2023-04-03T05:45:37;25.75;;;16.30;;
57635;SDS011;43465;50.728;4.160;2023-04-03T05:48:03;23.35;;;17.05;;
57635;SDS011;43465;50.728;4.160;2023-04-03T05:50:29;23.45;;;17.77;;
57635;SDS011;43465;50.728;4.160;2023-04-03T05:52:55;23.70;;;16.92;;
57635;SDS011;43465;50.728;4.160;2023-04-03T05:55:23;22.95;;;16.27;;
57635;SDS011;43465;50.728;4.160;2023-04-03T05:57:49;23.48;;;16.77;;
57635;SDS011;43465;50.728;4.160;2023-04-03T06:00:15;24.15;;;16.48;;
57635;SDS011;43465;50.728;4.160;2023-04-03T06:02:41;25.92;;;18.02;;
57635;SDS011;43465;50.728;4.160;2023-04-03T06:05:08;23.52;;;16.65;;
57635;SDS011;43465;50.728;4.160;2023-04-03T06:07:34;21.98;;;16.13;;
57635;SDS011;43465;50.728;4.160;2023-04-03T06:10:00;21.63;;;16.17;;
57635;SDS011;43465;50.728;4.160;2023-04-03T06:12:27;20.73;;;16.13;;
57635;SDS011;43465;50.728;4.160;2023-04-03T06:14:55;20.13;;;15.23;;
57635;SDS011;43465;50.728;4.160;2023-04-03T06:17:21;20.17;;;15.35;;
57635;SDS011;43465;50.728;4.160;2023-04-03T06:19:47;22.17;;;14.73;;
57635;SDS011;43465;50.728;4.160;2023-04-03T06:22:13;24.05;;;15.68;;
57635;SDS011;43465;50.728;4.160;2023-04-03T06:24:39;22.58;;;15.43;;
57635;SDS011;43465;50.728;4.160;2023-04-03T06:27:05;19.92;;;15.15;;
57635;SDS011;43465;50.728;4.160;2023-04-03T06:29:31;19.17;;;15.45;;
57635;SDS011;43465;50.728;4.160;2023-04-03T06:31:56;24.52;;;15.85;;
57635;SDS011;43465;50.728;4.160;2023-04-03T06:34:22;19.17;;;15.05;;
57635;SDS011;43465;50.728;4.160;2023-04-03T06:36:48;19.17;;;14.65;;
57635;SDS011;43465;50.728;4.160;2023-04-03T06:39:19;17.75;;;15.15;;
57635;SDS011;43465;50.728;4.160;2023-04-03T06:41:47;20.23;;;15.13;;
57635;SDS011;43465;50.728;4.160;2023-04-03T06:44:13;21.33;;;15.85;;
57635;SDS011;43465;50.728;4.160;2023-04-03T06:46:41;27.98;;;18.50;;
57635;SDS011;43465;50.728;4.160;2023-04-03T06:49:07;26.88;;;19.08;;
57635;SDS011;43465;50.728;4.160;2023-04-03T06:51:33;23.63;;;16.10;;
57635;SDS011;43465;50.728;4.160;2023-04-03T06:54:00;21.98;;;15.52;;
57635;SDS011;43465;50.728;4.160;2023-04-03T06:56:27;19.95;;;14.95;;
57635;SDS011;43465;50.728;4.160;2023-04-03T06:58:53;19.70;;;15.95;;
57635;SDS011;43465;50.728;4.160;2023-04-03T07:01:20;17.08;;;15.27;;
57635;SDS011;43465;50.728;4.160;2023-04-03T07:03:46;17.83;;;13.95;;
57635;SDS011;43465;50.728;4.160;2023-04-03T07:06:13;19.30;;;14.50;;
57635;SDS011;43465;50.728;4.160;2023-04-03T07:08:40;16.25;;;14.30;;
57635;SDS011;43465;50.728;4.160;2023-04-03T07:11:07;17.60;;;14.30;;
57635;SDS011;43465;50.728;4.160;2023-04-03T07:13:34;16.08;;;13.60;;
57635;SDS011;43465;50.728;4.160;2023-04-03T07:16:00;18.45;;;14.10;;
57635;SDS011;43465;50.728;4.160;2023-04-03T07:18:26;19.65;;;14.50;;
57635;SDS011;43465;50.728;4.160;2023-04-03T07:20:51;19.30;;;14.93;;
57635;SDS011;43465;50.728;4.160;2023-04-03T07:23:17;21.45;;;15.00;;
57635;SDS011;43465;50.728;4.160;2023-04-03T07:25:44;19.40;;;15.90;;
57635;SDS011;43465;50.728;4.160;2023-04-03T07:28:11;16.30;;;14.50;;
57635;SDS011;43465;50.728;4.160;2023-04-03T07:33:37;18.88;;;14.85;;
57635;SDS011;43465;50.728;4.160;2023-04-03T07:36:03;23.48;;;14.88;;
57635;SDS011;43465;50.728;4.160;2023-04-03T07:38:29;16.83;;;14.32;;
57635;SDS011;43465;50.728;4.160;2023-04-03T07:40:55;20.55;;;15.05;;
57635;SDS011;43465;50.728;4.160;2023-04-03T07:43:21;19.35;;;13.77;;
57635;SDS011;43465;50.728;4.160;2023-04-03T07:45:49;16.02;;;14.43;;
57635;SDS011;43465;50.728;4.160;2023-04-03T07:48:20;20.58;;;13.73;;
57635;SDS011;43465;50.728;4.160;2023-04-03T07:50:47;18.52;;;15.10;;
57635;SDS011;43465;50.728;4.160;2023-04-03T07:53:12;19.85;;;14.68;;
57635;SDS011;43465;50.728;4.160;2023-04-03T07:55:39;20.95;;;14.02;;
57635;SDS011;43465;50.728;4.160;2023-04-03T07:58:12;16.25;;;13.93;;
57635;SDS011;43465;50.728;4.160;2023-04-03T08:00:40;16.70;;;14.25;;
57635;SDS011;43465;50.728;4.160;2023-04-03T08:03:06;16.08;;;13.88;;
57635;SDS011;43465;50.728;4.160;2023-04-03T08:05:42;16.77;;;14.43;;
57635;SDS011;43465;50.728;4.160;2023-04-03T08:08:09;16.30;;;12.25;;
57635;SDS011;43465;50.728;4.160;2023-04-03T08:10:36;13.45;;;11.73;;
57635;SDS011;43465;50.728;4.160;2023-04-03T08:13:02;10.70;;;9.52;;
57635;SDS011;43465;50.728;4.160;2023-04-03T08:15:29;12.55;;;10.52;;
57635;SDS011;43465;50.728;4.160;2023-04-03T08:17:55;14.05;;;9.85;;
57635;SDS011;43465;50.728;4.160;2023-04-03T08:20:21;14.98;;;10.70;;
57635;SDS011;43465;50.728;4.160;2023-04-03T08:22:47;12.23;;;9.90;;
57635;SDS011;43465;50.728;4.160;2023-04-03T08:25:13;13.95;;;9.90;;
57635;SDS011;43465;50.728;4.160;2023-04-03T08:27:38;11.10;;;9.57;;
57635;SDS011;43465;50.728;4.160;2023-04-03T08:30:04;14.88;;;9.10;;
57635;SDS011;43465;50.728;4.160;2023-04-03T08:32:32;9.90;;;8.93;;
57635;SDS011;43465;50.728;4.160;2023-04-03T08:34:59;13.52;;;9.05;;
57635;SDS011;43465;50.728;4.160;2023-04-03T08:37:25;10.95;;;8.68;;
57635;SDS011;43465;50.728;4.160;2023-04-03T08:39:51;11.80;;;9.05;;
57635;SDS011;43465;50.728;4.160;2023-04-03T08:45:08;10.52;;;9.43;;
57635;SDS011;43465;50.728;4.160;2023-04-03T08:47:46;10.25;;;9.13;;
57635;SDS011;43465;50.728;4.160;2023-04-03T08:50:22;13.80;;;9.13;;
57635;SDS011;43465;50.728;4.160;2023-04-03T08:52:58;13.32;;;8.40;;
57635;SDS011;43465;50.728;4.160;2023-04-03T08:55:27;10.80;;;8.85;;
57635;SDS011;43465;50.728;4.160;2023-04-03T08:58:05;10.45;;;8.45;;
57635;SDS011;43465;50.728;4.160;2023-04-03T09:00:49;9.75;;;8.82;;
57635;SDS011;43465;50.728;4.160;2023-04-03T09:03:18;9.30;;;7.70;;
57635;SDS011;43465;50.728;4.160;2023-04-03T09:05:47;8.43;;;7.55;;
57635;SDS011;43465;50.728;4.160;2023-04-03T09:08:46;10.80;;;8.27;;
57635;SDS011;43465;50.728;4.160;2023-04-03T09:14:17;9.63;;;6.63;;
57635;SDS011;43465;50.728;4.160;2023-04-03T09:16:56;7.35;;;6.60;;
57635;SDS011;43465;50.728;4.160;2023-04-03T09:21:56;6.20;;;5.63;;
57635;SDS011;43465;50.728;4.160;2023-04-03T09:24:23;7.68;;;6.00;;
57635;SDS011;43465;50.728;4.160;2023-04-03T09:26:57;6.65;;;5.78;;
57635;SDS011;43465;50.728;4.160;2023-04-03T09:29:28;5.88;;;5.32;;
57635;SDS011;43465;50.728;4.160;2023-04-03T09:32:01;5.28;;;4.43;;
57635;SDS011;43465;50.728;4.160;2023-04-03T09:34:37;11.85;;;4.68;;
57635;SDS011;43465;50.728;4.160;2023-04-03T09:37:07;5.88;;;4.30;;
57635;SDS011;43465;50.728;4.160;2023-04-03T09:39:52;7.95;;;5.43;;
57635;SDS011;43465;50.728;4.160;2023-04-03T09:42:20;5.75;;;4.50;;
57635;SDS011;43465;50.728;4.160;2023-04-03T09:47:31;8.35;;;4.53;;
57635;SDS011;43465;50.728;4.160;2023-04-03T09:52:43;8.25;;;4.57;;
57635;SDS011;43465;50.728;4.160;2023-04-03T09:57:43;9.02;;;4.45;;
57635;SDS011;43465;50.728;4.160;2023-04-03T10:00:24;6.90;;;4.68;;
57635;SDS011;43465;50.728;4.160;2023-04-03T10:02:56;6.05;;;4.32;;
57635;SDS011;43465;50.728;4.160;2023-04-03T10:07:51;6.50;;;4.20;;
57635;SDS011;43465;50.728;4.160;2023-04-03T10:10:18;5.70;;;4.32;;
57635;SDS011;43465;50.728;4.160;2023-04-03T10:12:45;7.28;;;4.03;;
57635;SDS011;43465;50.728;4.160;2023-04-03T10:15:17;5.85;;;3.90;;
57635;SDS011;43465;50.728;4.160;2023-04-03T10:20:37;7.13;;;4.50;;
57635;SDS011;43465;50.728;4.160;2023-04-03T10:23:21;6.80;;;3.50;;
57635;SDS011;43465;50.728;4.160;2023-04-03T10:41:59;7.20;;;3.03;;
57635;SDS011;43465;50.728;4.160;2023-04-03T10:44:42;5.63;;;2.85;;
57635;SDS011;43465;50.728;4.160;2023-04-03T10:52:28;6.35;;;3.22;;
57635;SDS011;43465;50.728;4.160;2023-04-03T10:57:50;4.03;;;2.60;;
57635;SDS011;43465;50.728;4.160;2023-04-03T11:00:17;4.50;;;2.53;;
57635;SDS011;43465;50.728;4.160;2023-04-03T11:02:56;5.68;;;2.55;;
57635;SDS011;43465;50.728;4.160;2023-04-03T11:08:01;5.32;;;2.42;;
57635;SDS011;43465;50.728;4.160;2023-04-03T11:13:07;5.13;;;2.43;;
57635;SDS011;43465;50.728;4.160;2023-04-03T11:15:38;5.10;;;2.40;;
57635;SDS011;43465;50.728;4.160;2023-04-03T11:18:06;4.75;;;2.28;;
57635;SDS011;43465;50.728;4.160;2023-04-03T11:23:33;3.30;;;2.20;;
57635;SDS011;43465;50.728;4.160;2023-04-03T11:26:08;4.32;;;2.33;;
57635;SDS011;43465;50.728;4.160;2023-04-03T11:28:46;3.55;;;2.40;;
57635;SDS011;43465;50.728;4.160;2023-04-03T11:37:01;4.68;;;2.38;;
57635;SDS011;43465;50.728;4.160;2023-04-03T11:39:36;4.47;;;2.63;;
57635;SDS011;43465;50.728;4.160;2023-04-03T11:42:22;3.05;;;2.38;;
57635;SDS011;43465;50.728;4.160;2023-04-03T11:50:55;6.05;;;2.20;;
57635;SDS011;43465;50.728;4.160;2023-04-03T11:53:37;3.38;;;2.17;;
57635;SDS011;43465;50.728;4.160;2023-04-03T12:01:43;3.67;;;2.55;;
57635;SDS011;43465;50.728;4.160;2023-04-03T12:04:09;6.57;;;2.42;;
57635;SDS011;43465;50.728;4.160;2023-04-03T12:09:22;4.10;;;1.90;;
57635;SDS011;43465;50.728;4.160;2023-04-03T12:11:47;3.72;;;2.20;;
57635;SDS011;43465;50.728;4.160;2023-04-03T12:14:15;4.00;;;2.60;;
57635;SDS011;43465;50.728;4.160;2023-04-03T12:16:46;3.67;;;2.30;;
57635;SDS011;43465;50.728;4.160;2023-04-03T12:24:42;4.53;;;2.38;;
57635;SDS011;43465;50.728;4.160;2023-04-03T12:27:17;3.60;;;2.20;;
57635;SDS011;43465;50.728;4.160;2023-04-03T12:46:11;2.47;;;2.03;;
57635;SDS011;43465;50.728;4.160;2023-04-03T12:48:53;2.85;;;1.88;;
57635;SDS011;43465;50.728;4.160;2023-04-03T12:51:21;3.97;;;2.20;;
57635;SDS011;43465;50.728;4.160;2023-04-03T12:54:03;2.92;;;1.70;;
57635;SDS011;43465;50.728;4.160;2023-04-03T12:56:40;4.25;;;1.88;;
57635;SDS011;43465;50.728;4.160;2023-04-03T13:02:00;2.97;;;1.70;;
57635;SDS011;43465;50.728;4.160;2023-04-03T13:04:27;5.63;;;2.25;;
57635;SDS011;43465;50.728;4.160;2023-04-03T13:06:54;5.38;;;2.40;;
57635;SDS011;43465;50.728;4.160;2023-04-03T13:09:22;6.80;;;2.80;;
57635;SDS011;43465;50.728;4.160;2023-04-03T13:12:00;4.15;;;2.08;;
57635;SDS011;43465;50.728;4.160;2023-04-03T13:14:29;2.30;;;1.67;;
57635;SDS011;43465;50.728;4.160;2023-04-03T13:16:57;3.40;;;2.03;;
57635;SDS011;43465;50.728;4.160;2023-04-03T13:19:35;3.47;;;2.13;;
57635;SDS011;43465;50.728;4.160;2023-04-03T13:22:02;3.22;;;2.15;;
57635;SDS011;43465;50.728;4.160;2023-04-03T13:24:32;4.70;;;1.75;;
57635;SDS011;43465;50.728;4.160;2023-04-03T13:27:01;2.80;;;2.05;;
57635;SDS011;43465;50.728;4.160;2023-04-03T13:29:32;2.90;;;1.98;;
57635;SDS011;43465;50.728;4.160;2023-04-03T13:32:01;3.20;;;2.15;;
57635;SDS011;43465;50.728;4.160;2023-04-03T13:34:29;2.90;;;1.60;;
57635;SDS011;43465;50.728;4.160;2023-04-03T13:37:05;2.03;;;1.67;;
57635;SDS011;43465;50.728;4.160;2023-04-03T13:39:37;3.05;;;1.67;;
57635;SDS011;43465;50.728;4.160;2023-04-03T13:42:21;3.85;;;1.70;;
57635;SDS011;43465;50.728;4.160;2023-04-03T13:44:49;3.03;;;1.65;;
57635;SDS011;43465;50.728;4.160;2023-04-03T13:47:40;2.55;;;1.40;;
57635;SDS011;43465;50.728;4.160;2023-04-03T13:55:21;1.60;;;1.40;;
57635;SDS011;43465;50.728;4.160;2023-04-03T13:58:01;2.33;;;1.52;;
57635;SDS011;43465;50.728;4.160;2023-04-03T14:00:47;3.15;;;1.67;;
57635;SDS011;43465;50.728;4.160;2023-04-03T14:06:08;3.05;;;1.65;;
57635;SDS011;43465;50.728;4.160;2023-04-03T14:08:36;3.45;;;1.70;;
57635;SDS011;43465;50.728;4.160;2023-04-03T14:11:02;3.50;;;1.50;;
57635;SDS011;43465;50.728;4.160;2023-04-03T14:13:31;3.03;;;1.73;;
57635;SDS011;43465;50.728;4.160;2023-04-03T14:15:57;2.88;;;1.63;;
57635;SDS011;43465;50.728;4.160;2023-04-03T14:18:23;1.42;;;1.30;;
57635;SDS011;43465;50.728;4.160;2023-04-03T14:20:49;2.28;;;1.40;;
57635;SDS011;43465;50.728;4.160;2023-04-03T14:23:15;4.15;;;1.90;;
57635;SDS011;43465;50.728;4.160;2023-04-03T14:25:41;2.25;;;1.60;;
57635;SDS011;43465;50.728;4.160;2023-04-03T14:28:15;2.13;;;1.50;;
57635;SDS011;43465;50.728;4.160;2023-04-03T14:30:44;3.88;;;2.00;;
57635;SDS011;43465;50.728;4.160;2023-04-03T14:33:13;6.53;;;1.77;;
57635;SDS011;43465;50.728;4.160;2023-04-03T14:35:41;1.67;;;1.45;;
57635;SDS011;43465;50.728;4.160;2023-04-03T14:40:53;5.38;;;1.80;;
57635;SDS011;43465;50.728;4.160;2023-04-03T14:43:20;4.38;;;2.33;;
57635;SDS011;43465;50.728;4.160;2023-04-03T14:45:46;3.63;;;2.10;;
57635;SDS011;43465;50.728;4.160;2023-04-03T14:48:21;4.20;;;2.15;;
57635;SDS011;43465;50.728;4.160;2023-04-03T14:50:49;3.08;;;1.90;;
57635;SDS011;43465;50.728;4.160;2023-04-03T14:53:16;3.20;;;2.13;;
57635;SDS011;43465;50.728;4.160;2023-04-03T14:55:46;4.45;;;2.25;;
57635;SDS011;43465;50.728;4.160;2023-04-03T14:58:16;4.20;;;1.80;;
57635;SDS011;43465;50.728;4.160;2023-04-03T15:00:44;3.90;;;1.85;;
57635;SDS011;43465;50.728;4.160;2023-04-03T15:03:17;2.83;;;1.75;;
57635;SDS011;43465;50.728;4.160;2023-04-03T15:05:46;2.95;;;2.03;;
57635;SDS011;43465;50.728;4.160;2023-04-03T15:08:23;2.17;;;1.85;;
57635;SDS011;43465;50.728;4.160;2023-04-03T15:10:51;2.83;;;1.80;;
57635;SDS011;43465;50.728;4.160;2023-04-03T15:13:21;4.43;;;2.03;;
57635;SDS011;43465;50.728;4.160;2023-04-03T15:15:48;3.13;;;1.70;;
57635;SDS011;43465;50.728;4.160;2023-04-03T15:18:17;3.55;;;1.75;;
57635;SDS011;43465;50.728;4.160;2023-04-03T15:20:44;2.08;;;1.73;;
57635;SDS011;43465;50.728;4.160;2023-04-03T15:23:14;2.15;;;1.60;;
57635;SDS011;43465;50.728;4.160;2023-04-03T15:25:44;3.50;;;1.85;;
57635;SDS011;43465;50.728;4.160;2023-04-03T15:28:35;11.95;;;6.90;;
57635;SDS011;43465;50.728;4.160;2023-04-03T15:31:03;4.00;;;1.73;;
57635;SDS011;43465;50.728;4.160;2023-04-03T15:33:30;3.33;;;1.63;;
57635;SDS011;43465;50.728;4.160;2023-04-03T15:35:56;4.65;;;1.60;;
57635;SDS011;43465;50.728;4.160;2023-04-03T15:38:22;3.85;;;1.70;;
57635;SDS011;43465;50.728;4.160;2023-04-03T15:40:47;4.72;;;1.77;;
57635;SDS011;43465;50.728;4.160;2023-04-03T15:43:14;2.38;;;1.40;;
57635;SDS011;43465;50.728;4.160;2023-04-03T15:45:40;2.00;;;1.63;;
57635;SDS011;43465;50.728;4.160;2023-04-03T15:48:07;2.42;;;1.90;;
57635;SDS011;43465;50.728;4.160;2023-04-03T15:50:34;3.65;;;1.85;;
57635;SDS011;43465;50.728;4.160;2023-04-03T15:53:00;4.13;;;1.70;;
57635;SDS011;43465;50.728;4.160;2023-04-03T15:55:27;2.63;;;1.60;;
57635;SDS011;43465;50.728;4.160;2023-04-03T15:57:54;3.42;;;2.17;;
57635;SDS011;43465;50.728;4.160;2023-04-03T16:00:21;7.57;;;1.90;;
57635;SDS011;43465;50.728;4.160;2023-04-03T16:02:48;3.47;;;2.10;;
57635;SDS011;43465;50.728;4.160;2023-04-03T16:05:17;3.42;;;1.58;;
57635;SDS011;43465;50.728;4.160;2023-04-03T16:07:45;2.97;;;1.70;;
57635;SDS011;43465;50.728;4.160;2023-04-03T16:10:11;3.40;;;1.95;;
57635;SDS011;43465;50.728;4.160;2023-04-03T16:12:40;3.03;;;2.10;;
57635;SDS011;43465;50.728;4.160;2023-04-03T16:15:06;3.90;;;2.40;;
57635;SDS011;43465;50.728;4.160;2023-04-03T16:17:32;4.53;;;2.13;;
57635;SDS011;43465;50.728;4.160;2023-04-03T16:20:00;4.00;;;1.85;;
57635;SDS011;43465;50.728;4.160;2023-04-03T16:22:27;2.30;;;2.10;;
57635;SDS011;43465;50.728;4.160;2023-04-03T16:24:53;4.75;;;2.25;;
57635;SDS011;43465;50.728;4.160;2023-04-03T16:27:19;4.50;;;2.25;;
57635;SDS011;43465;50.728;4.160;2023-04-03T16:29:45;4.15;;;2.35;;
57635;SDS011;43465;50.728;4.160;2023-04-03T16:32:11;3.90;;;2.40;;
57635;SDS011;43465;50.728;4.160;2023-04-03T16:34:38;3.13;;;2.00;;
57635;SDS011;43465;50.728;4.160;2023-04-03T16:37:06;3.60;;;2.00;;